Time;durP1;ratioP1;P1;durP2;ratioP2;P2;SDS_P1;SDS_P2;PMS_P1;PMS_P2;Temp;Humidity;BMP_temperature;BMP_pressure;BME280_temperature;BME280_humidity;BME280_pressure;Samples;Min_cycle;Max_cycle;Signal;HPM_P1;HPM_P2
2021/03/25 00:01:30;;;;;;;55.27;36.20;;;10.80;1.00;;;;;;5075870;28;20175;-83
2021/03/25 00:03:56;;;;;;;52.57;37.10;;;10.80;1.00;;;;;;5076172;28;20180;-83
2021/03/25 00:06:24;;;;;;;55.03;36.77;;;10.80;1.00;;;;;;5058630;28;20179;-85
2021/03/25 00:08:50;;;;;;;51.43;36.33;;;10.80;1.00;;;;;;5076627;28;20648;-84
2021/03/25 00:11:16;;;;;;;56.13;36.80;;;10.70;1.00;;;;;;5058384;28;20176;-84
2021/03/25 00:13:41;;;;;;;50.47;37.17;;;10.60;1.00;;;;;;5076309;28;20172;-86
2021/03/25 00:16:08;;;;;;;54.00;37.87;;;10.50;1.00;;;;;;5076132;28;20190;-82
2021/03/25 00:18:35;;;;;;;54.37;36.43;;;10.60;1.00;;;;;;5076216;28;20168;-85
2021/03/25 00:21:01;;;;;;;60.10;37.73;;;10.60;1.00;;;;;;5058128;28;20580;-83
2021/03/25 00:23:27;;;;;;;53.23;38.00;;;10.50;1.00;;;;;;5075852;28;20214;-82
2021/03/25 00:25:52;;;;;;;55.03;36.57;;;10.50;1.00;;;;;;5075592;28;20267;-78
2021/03/25 00:28:19;;;;;;;51.73;37.27;;;10.40;1.00;;;;;;5081221;28;20184;-79
2021/03/25 00:30:46;;;;;;;60.67;38.27;;;10.40;1.00;;;;;;5083224;28;20628;-83
2021/03/25 00:33:14;;;;;;;55.93;37.87;;;10.50;1.00;;;;;;5075791;28;20200;-83
2021/03/25 00:35:41;;;;;;;59.50;38.90;;;10.50;1.00;;;;;;5075841;28;20176;-82
2021/03/25 00:38:07;;;;;;;51.77;36.53;;;10.50;1.00;;;;;;5076066;28;20215;-81
2021/03/25 00:40:33;;;;;;;53.50;37.43;;;10.60;1.00;;;;;;5057649;28;20182;-79
2021/03/25 00:43:00;;;;;;;52.67;38.37;;;10.60;1.00;;;;;;5075431;28;20200;-78
2021/03/25 00:45:31;;;;;;;56.97;39.67;;;10.60;1.00;;;;;;5075421;28;20176;-81
2021/03/25 00:47:57;;;;;;;55.13;36.93;;;10.50;1.00;;;;;;5075050;28;20179;-78
2021/03/25 00:50:29;;;;;;;59.00;37.40;;;10.40;1.00;;;;;;5075689;28;20226;-81
2021/03/25 00:52:56;;;;;;;55.93;38.23;;;10.20;1.00;;;;;;5075613;28;20621;-78
2021/03/25 00:55:22;;;;;;;56.63;39.33;;;10.20;1.00;;;;;;5057338;28;20269;-80
2021/03/25 00:57:48;;;;;;;57.13;38.27;;;10.30;1.00;;;;;;5075527;28;20164;-84
2021/03/25 01:00:21;;;;;;;56.30;38.27;;;10.30;1.00;;;;;;5057486;28;20226;-83
2021/03/25 01:02:47;;;;;;;53.77;38.43;;;10.10;1.00;;;;;;5057483;28;20230;-80
2021/03/25 01:05:13;;;;;;;54.67;38.00;;;10.10;1.00;;;;;;5075426;28;20563;-82
2021/03/25 01:07:39;;;;;;;55.30;37.80;;;10.10;1.00;;;;;;5075353;28;20251;-82
2021/03/25 01:10:36;;;;;;;51.83;36.30;;;10.10;1.00;;;;;;5074985;28;20298;-85
2021/03/25 01:13:06;;;;;;;57.23;39.10;;;10.00;1.00;;;;;;5057159;28;20579;-83
2021/03/25 01:15:32;;;;;;;55.57;38.83;;;10.20;1.00;;;;;;5057298;28;20182;-84
2021/03/25 01:18:00;;;;;;;56.97;38.50;;;10.00;1.20;;;;;;5075132;28;20176;-81
2021/03/25 01:20:39;;;;;;;54.93;37.20;;;10.10;2.40;;;;;;5075028;28;20161;-82
2021/03/25 01:23:06;;;;;;;54.83;37.47;;;10.30;1.00;;;;;;5074502;28;20648;-83
2021/03/25 01:25:32;;;;;;;52.67;36.87;;;10.30;1.00;;;;;;5075009;28;20184;-80
2021/03/25 01:28:00;;;;;;;57.30;39.80;;;10.40;1.00;;;;;;5075191;28;20173;-82
2021/03/25 01:30:28;;;;;;;53.23;37.37;;;10.30;1.00;;;;;;5074790;28;20200;-80
2021/03/25 01:32:57;;;;;;;53.20;36.97;;;10.20;1.00;;;;;;5074642;28;20727;-81
2021/03/25 01:35:23;;;;;;;50.90;37.60;;;10.40;1.00;;;;;;5074688;28;20693;-85
2021/03/25 01:37:50;;;;;;;60.00;38.43;;;10.30;1.00;;;;;;5074648;28;20164;-83
2021/03/25 01:40:20;;;;;;;51.37;37.40;;;10.30;1.00;;;;;;5057126;28;20180;-85
2021/03/25 01:42:46;;;;;;;59.90;37.60;;;10.30;1.00;;;;;;5057117;28;20172;-83
2021/03/25 01:45:30;;;;;;;55.73;38.70;;;10.20;1.00;;;;;;5057027;28;20176;-81
2021/03/25 01:48:00;;;;;;;53.07;38.23;;;10.20;1.00;;;;;;5078791;28;20195;-80
2021/03/25 01:50:26;;;;;;;54.63;36.73;;;10.20;1.00;;;;;;5084203;28;20215;-78
2021/03/25 01:52:58;;;;;;;54.77;38.03;;;10.40;1.00;;;;;;5084677;28;20183;-78
2021/03/25 01:55:33;;;;;;;51.17;38.17;;;10.40;1.00;;;;;;5088634;28;20168;-83
2021/03/25 01:58:07;;;;;;;54.77;38.23;;;10.50;1.00;;;;;;5082243;28;20616;-82
2021/03/25 02:00:39;;;;;;;54.03;36.90;;;10.40;1.00;;;;;;5078352;28;20237;-79
2021/03/25 02:03:41;;;;;;;49.43;34.83;;;10.50;1.00;;;;;;5087459;28;20219;-83
2021/03/25 02:06:31;;;;;;;48.77;34.33;;;10.20;1.00;;;;;;5087174;28;20172;-83
2021/03/25 02:09:15;;;;;;;53.13;34.97;;;10.20;1.00;;;;;;5083921;28;20255;-83
2021/03/25 02:12:11;;;;;;;47.50;35.07;;;10.30;1.00;;;;;;5074849;28;20702;-85
2021/03/25 02:14:46;;;;;;;47.87;33.17;;;10.20;1.00;;;;;;5074420;28;20188;-84
2021/03/25 02:17:41;;;;;;;47.97;34.07;;;10.10;1.20;;;;;;5074159;28;20168;-80
2021/03/25 02:20:18;;;;;;;50.90;33.97;;;10.10;4.80;;;;;;5051877;28;20184;-85
2021/03/25 02:22:57;;;;;;;44.80;31.17;;;10.10;7.70;;;;;;5073694;28;20251;-85
2021/03/25 02:25:33;;;;;;;55.43;33.23;;;10.00;8.20;;;;;;5073899;28;20152;-81
2021/03/25 02:28:04;;;;;;;42.67;32.50;;;10.10;8.80;;;;;;5056096;28;20566;-81
2021/03/25 02:30:45;;;;;;;48.03;32.17;;;10.10;5.00;;;;;;5074062;28;20204;-85
2021/03/25 02:33:21;;;;;;;44.20;31.83;;;10.10;3.50;;;;;;5055887;28;20226;-83
2021/03/25 02:35:52;;;;;;;45.37;31.77;;;10.10;8.10;;;;;;5073808;28;20164;-84
2021/03/25 02:38:35;;;;;;;45.67;31.37;;;10.10;6.40;;;;;;5073861;28;20185;-82
2021/03/25 02:41:11;;;;;;;40.97;30.27;;;10.10;3.90;;;;;;5073719;28;20620;-82
2021/03/25 02:43:58;;;;;;;40.27;29.27;;;10.20;1.70;;;;;;5073605;28;20184;-83
2021/03/25 02:46:28;;;;;;;42.43;28.57;;;10.20;1.00;;;;;;5073466;28;20168;-85
2021/03/25 02:49:00;;;;;;;43.47;29.00;;;10.10;3.20;;;;;;5073315;28;20253;-81
2021/03/25 02:51:39;;;;;;;40.20;28.00;;;10.10;5.10;;;;;;5073327;28;20172;-85
2021/03/25 02:54:06;;;;;;;38.77;26.57;;;10.00;5.30;;;;;;5073479;28;20180;-81
2021/03/25 02:56:47;;;;;;;38.87;27.13;;;10.00;5.50;;;;;;5073376;28;20206;-85
2021/03/25 02:59:27;;;;;;;44.33;27.17;;;9.90;3.50;;;;;;5073544;28;20229;-84
2021/03/25 03:01:58;;;;;;;41.83;26.70;;;10.00;6.40;;;;;;5055430;28;20222;-83
2021/03/25 03:04:32;;;;;;;38.20;28.17;;;10.00;3.70;;;;;;5055139;28;20169;-84
2021/03/25 03:07:06;;;;;;;41.40;27.90;;;10.00;4.30;;;;;;5055420;28;20180;-84
2021/03/25 03:09:39;;;;;;;40.93;29.00;;;9.90;9.30;;;;;;5073436;28;20275;-84
2021/03/25 03:12:12;;;;;;;42.17;29.07;;;9.80;14.20;;;;;;5072965;28;20635;-83
2021/03/25 03:14:51;;;;;;;42.13;28.37;;;9.80;17.80;;;;;;5073030;28;20191;-84
2021/03/25 03:17:33;;;;;;;42.17;27.33;;;9.70;18.60;;;;;;5055557;28;20537;-81
2021/03/25 03:20:30;;;;;;;41.87;27.60;;;9.60;22.20;;;;;;5072966;28;20540;-79
2021/03/25 03:22:55;;;;;;;42.43;28.70;;;9.60;23.60;;;;;;5020940;28;20191;-83
2021/03/25 03:25:24;;;;;;;37.93;27.63;;;9.50;25.30;;;;;;5073401;28;20542;-79
2021/03/25 03:28:08;;;;;;;39.87;27.47;;;9.40;27.80;;;;;;5072476;28;20191;-79
2021/03/25 03:30:49;;;;;;;38.17;27.53;;;9.40;30.00;;;;;;5073119;28;20200;-83
2021/03/25 03:33:16;;;;;;;38.83;27.20;;;9.40;31.00;;;;;;5072985;28;20655;-85
2021/03/25 03:35:53;;;;;;;39.73;28.13;;;9.40;31.20;;;;;;5073284;28;20176;-83
2021/03/25 03:38:53;;;;;;;45.43;28.10;;;9.40;31.00;;;;;;5073076;28;20202;-83
2021/03/25 03:41:25;;;;;;;34.50;25.90;;;9.40;31.50;;;;;;5068100;28;20539;-83
2021/03/25 03:43:51;;;;;;;39.97;28.17;;;9.40;32.20;;;;;;5072954;28;20192;-83
2021/03/25 03:46:24;;;;;;;37.67;25.13;;;9.30;33.70;;;;;;5073293;28;20643;-82
2021/03/25 03:48:53;;;;;;;43.47;26.50;;;9.30;34.40;;;;;;5072694;28;20196;-84
2021/03/25 03:51:41;;;;;;;34.40;24.53;;;9.30;34.90;;;;;;5073113;28;20257;-80
2021/03/25 03:54:07;;;;;;;38.77;25.47;;;9.40;34.80;;;;;;5072844;28;20176;-85
2021/03/25 03:56:43;;;;;;;37.53;26.17;;;9.50;31.40;;;;;;5073189;28;20164;-83
2021/03/25 03:59:20;;;;;;;34.70;26.07;;;9.50;28.50;;;;;;5073147;28;20172;-81
2021/03/25 04:01:52;;;;;;;42.03;26.37;;;9.60;27.50;;;;;;5072813;28;20164;-77
2021/03/25 04:04:27;;;;;;;36.37;26.50;;;9.70;24.50;;;;;;5072772;28;20182;-83
2021/03/25 04:06:59;;;;;;;38.37;26.70;;;9.60;25.20;;;;;;5072711;28;20176;-79
2021/03/25 04:09:51;;;;;;;39.33;25.43;;;9.60;26.10;;;;;;5072594;28;20559;-84
2021/03/25 04:12:22;;;;;;;40.73;26.67;;;9.50;26.00;;;;;;5067796;28;20253;-81
2021/03/25 04:14:52;;;;;;;38.80;24.67;;;9.60;28.20;;;;;;5054673;28;20552;-83
2021/03/25 04:17:29;;;;;;;37.80;25.13;;;9.50;27.20;;;;;;5072789;28;20164;-82
2021/03/25 04:19:58;;;;;;;34.37;24.87;;;9.50;27.90;;;;;;5054690;28;20635;-82
2021/03/25 04:22:29;;;;;;;37.87;26.60;;;9.70;24.90;;;;;;5055541;28;20577;-79
2021/03/25 04:25:00;;;;;;;39.43;26.27;;;9.90;16.30;;;;;;5076150;28;20662;-80
2021/03/25 04:27:32;;;;;;;40.73;25.70;;;9.90;12.90;;;;;;5076132;28;20211;-83
2021/03/25 04:30:06;;;;;;;40.20;26.13;;;9.70;16.90;;;;;;5075915;28;20353;-79
2021/03/25 04:32:32;;;;;;;40.03;26.23;;;9.70;24.50;;;;;;5076028;28;20207;-80
2021/03/25 04:34:59;;;;;;;36.70;26.23;;;9.50;25.10;;;;;;5075919;28;20173;-78
2021/03/25 04:37:28;;;;;;;38.60;26.47;;;9.60;24.30;;;;;;5075878;28;20644;-79
2021/03/25 04:39:54;;;;;;;38.70;25.43;;;9.70;20.10;;;;;;5075649;28;20174;-78
2021/03/25 04:42:21;;;;;;;36.17;25.93;;;9.70;20.30;;;;;;5075602;28;20187;-81
2021/03/25 04:44:59;;;;;;;38.43;25.70;;;9.50;24.90;;;;;;5075469;28;20192;-79
2021/03/25 04:47:46;;;;;;;38.33;26.03;;;9.30;30.80;;;;;;5075613;28;20168;-79
2021/03/25 04:50:22;;;;;;;41.23;24.70;;;9.20;34.10;;;;;;5057405;28;20616;-79
2021/03/25 04:52:48;;;;;;;34.67;24.43;;;9.30;36.50;;;;;;5057917;28;20171;-82
2021/03/25 04:55:14;;;;;;;38.00;25.17;;;9.30;33.90;;;;;;5057674;28;20639;-79
2021/03/25 04:58:01;;;;;;;36.23;24.07;;;9.20;36.30;;;;;;5057925;28;20179;-81
2021/03/25 05:00:36;;;;;;;36.80;25.07;;;9.20;38.60;;;;;;5075749;28;20343;-78
2021/03/25 05:03:04;;;;;;;40.63;24.73;;;9.20;40.00;;;;;;5075578;28;20254;-84
2021/03/25 05:05:31;;;;;;;40.27;25.37;;;9.30;39.80;;;;;;5057496;28;20184;-77
2021/03/25 05:08:06;;;;;;;41.27;24.77;;;9.30;37.90;;;;;;5075185;28;20165;-83
2021/03/25 05:11:00;;;;;;;40.73;24.83;;;9.30;37.30;;;;;;5057320;28;20571;-81
2021/03/25 05:13:33;;;;;;;37.10;24.20;;;9.30;41.30;;;;;;5063564;28;20233;-84
2021/03/25 05:16:23;;;;;;;36.07;23.90;;;9.40;39.80;;;;;;5057319;28;20180;-78
2021/03/25 05:19:07;;;;;;;35.80;24.33;;;9.40;36.70;;;;;;5057376;28;20168;-79
2021/03/25 05:22:21;;;;;;;35.20;24.37;;;9.40;38.30;;;;;;5075336;28;20172;-84
2021/03/25 05:25:07;;;;;;;35.93;22.70;;;9.30;37.60;;;;;;5057053;28;20172;-83
2021/03/25 05:27:53;;;;;;;36.37;23.30;;;9.20;43.70;;;;;;5074644;28;20198;-81
2021/03/25 05:30:30;;;;;;;39.10;24.67;;;9.20;45.60;;;;;;5074278;28;20303;-82
2021/03/25 05:33:02;;;;;;;30.63;22.83;;;9.20;44.80;;;;;;5075095;28;20156;-78
2021/03/25 05:35:32;;;;;;;41.40;24.47;;;9.20;46.00;;;;;;5075102;28;20176;-84
2021/03/25 05:37:58;;;;;;;36.57;23.77;;;9.30;41.90;;;;;;5074838;28;20171;-80
2021/03/25 05:41:09;;;;;;;35.50;24.27;;;9.20;43.10;;;;;;5074386;28;20168;-82
2021/03/25 05:43:44;;;;;;;35.80;22.50;;;9.10;45.80;;;;;;5074470;28;20188;-82
2021/03/25 05:46:37;;;;;;;36.43;22.43;;;9.10;47.70;;;;;;5074500;28;20172;-82
2021/03/25 05:49:19;;;;;;;32.97;22.57;;;9.10;47.50;;;;;;5074713;28;20246;-78
2021/03/25 05:52:23;;;;;;;32.77;21.30;;;9.20;47.70;;;;;;5074494;28;20222;-78
2021/03/25 05:55:13;;;;;;;34.77;22.97;;;9.30;41.50;;;;;;5073904;28;20254;-81
2021/03/25 05:58:00;;;;;;;31.17;22.57;;;9.20;45.30;;;;;;5074017;28;20191;-83
2021/03/25 06:00:37;;;;;;;30.43;20.67;;;9.20;48.20;;;;;;5073861;28;20168;-83
2021/03/25 06:03:09;;;;;;;34.47;21.33;;;9.20;47.90;;;;;;5074081;28;20187;-78
2021/03/25 06:05:35;;;;;;;35.17;20.63;;;9.20;47.50;;;;;;5056195;28;20188;-80
2021/03/25 06:08:08;;;;;;;31.40;21.07;;;9.10;48.50;;;;;;5074246;28;20577;-83
2021/03/25 06:10:56;;;;;;;35.17;21.17;;;9.10;48.70;;;;;;5074234;28;20746;-81
2021/03/25 06:13:33;;;;;;;29.83;20.53;;;9.20;50.60;;;;;;5073843;28;20261;-83
2021/03/25 06:16:08;;;;;;;31.90;21.07;;;9.10;49.90;;;;;;5073904;28;20171;-80
2021/03/25 06:18:55;;;;;;;34.90;21.77;;;9.10;51.50;;;;;;5074028;28;20225;-84
2021/03/25 06:21:26;;;;;;;33.70;22.30;;;9.20;49.70;;;;;;5074249;28;20643;-86
2021/03/25 06:24:37;;;;;;;35.83;21.20;;;9.40;47.60;;;;;;5074037;28;20578;-78
2021/03/25 06:27:21;;;;;;;36.17;21.03;;;9.30;47.00;;;;;;5048209;28;20242;-81
2021/03/25 06:29:54;;;;;;;28.83;20.83;;;9.30;48.70;;;;;;5073780;28;20226;-84
2021/03/25 06:32:28;;;;;;;33.50;22.10;;;9.50;42.80;;;;;;5056044;28;20169;-86
2021/03/25 06:35:05;;;;;;;32.07;22.00;;;9.50;40.50;;;;;;5073995;28;20294;-80
2021/03/25 06:37:55;;;;;;;30.40;22.13;;;9.60;36.50;;;;;;5073606;28;20176;-82
2021/03/25 06:40:26;;;;;;;40.20;22.90;;;9.60;33.60;;;;;;5073552;28;20303;-81
2021/03/25 06:43:20;;;;;;;35.63;22.83;;;9.40;41.80;;;;;;5072586;28;20199;-84
2021/03/25 06:45:53;;;;;;;32.70;21.57;;;9.30;45.30;;;;;;5072079;28;20651;-81
2021/03/25 06:48:41;;;;;;;32.23;22.27;;;9.30;46.60;;;;;;5072655;28;20245;-77
2021/03/25 06:51:16;;;;;;;31.27;22.03;;;9.30;47.80;;;;;;5072687;28;20180;-84
2021/03/25 06:53:41;;;;;;;32.30;22.80;;;9.30;49.90;;;;;;5072606;28;20164;-77
2021/03/25 06:56:10;;;;;;;38.40;22.93;;;9.30;50.00;;;;;;5072535;28;20536;-82
2021/03/25 06:58:47;;;;;;;34.37;21.20;;;9.30;48.40;;;;;;5054076;28;20679;-84
2021/03/25 07:01:28;;;;;;;32.67;21.03;;;9.30;49.50;;;;;;5072498;28;20168;-82
2021/03/25 07:03:57;;;;;;;31.97;21.57;;;9.20;52.40;;;;;;5072020;28;20259;-77
2021/03/25 07:06:26;;;;;;;30.63;21.63;;;9.20;54.60;;;;;;5072294;28;20156;-82
2021/03/25 07:08:55;;;;;;;29.93;21.57;;;9.20;55.20;;;;;;5072074;28;20212;-80
2021/03/25 07:11:22;;;;;;;31.13;22.30;;;9.20;53.00;;;;;;5072103;28;20644;-78
2021/03/25 07:13:59;;;;;;;39.00;24.30;;;9.30;55.60;;;;;;5072295;28;20277;-80
2021/03/25 07:16:28;;;;;;;33.13;23.03;;;9.50;54.50;;;;;;5054244;28;20622;-82
2021/03/25 07:19:07;;;;;;;35.40;23.07;;;9.50;55.20;;;;;;5077023;28;20353;-85
2021/03/25 07:21:46;;;;;;;32.67;23.73;;;9.40;60.00;;;;;;5079012;28;20252;-85
2021/03/25 07:24:27;;;;;;;36.47;25.17;;;9.50;64.60;;;;;;5086628;28;20286;-85
2021/03/25 07:27:06;;;;;;;39.83;24.50;;;9.50;65.90;;;;;;5071335;28;20191;-83
2021/03/25 07:29:35;;;;;;;38.13;24.60;;;9.50;65.60;;;;;;5069006;28;20203;-85
2021/03/25 07:32:20;;;;;;;35.93;24.50;;;9.60;64.20;;;;;;5092857;28;20627;-79
2021/03/25 07:34:48;;;;;;;38.40;25.20;;;9.60;70.90;;;;;;5086658;28;20228;-83
2021/03/25 07:37:24;;;;;;;39.60;25.63;;;9.50;73.70;;;;;;5081767;28;20203;-80
2021/03/25 07:39:59;;;;;;;39.63;25.67;;;9.50;75.00;;;;;;5076740;28;20178;-80
2021/03/25 07:42:34;;;;;;;36.27;24.53;;;9.60;79.10;;;;;;5072671;28;20179;-78
2021/03/25 07:45:17;;;;;;;38.73;25.13;;;9.70;79.20;;;;;;5086243;28;20193;-78
2021/03/25 07:47:46;;;;;;;34.67;23.63;;;9.70;80.40;;;;;;5092025;28;20167;-78
2021/03/25 07:50:37;;;;;;;34.93;24.70;;;9.80;79.70;;;;;;5073925;28;20513;-81
2021/03/25 07:53:27;;;;;;;33.00;24.30;;;9.70;81.70;;;;;;5085470;28;20171;-80
2021/03/25 07:56:14;;;;;;;32.47;23.10;;;9.70;83.10;;;;;;5072771;28;20662;-81
2021/03/25 07:58:45;;;;;;;35.07;23.43;;;9.70;83.70;;;;;;5085671;28;20627;-79
2021/03/25 08:01:20;;;;;;;35.13;24.00;;;9.70;84.10;;;;;;5083112;28;20230;-82
2021/03/25 08:03:54;;;;;;;32.07;23.73;;;9.70;83.60;;;;;;5053893;28;20176;-83
2021/03/25 08:06:25;;;;;;;35.27;23.47;;;9.70;85.70;;;;;;5074655;28;20251;-80
2021/03/25 08:09:03;;;;;;;35.30;21.80;;;9.80;85.80;;;;;;5061425;28;20596;-79
2021/03/25 08:11:29;;;;;;;33.43;23.83;;;9.80;90.10;;;;;;5094381;28;20635;-78
2021/03/25 08:13:59;;;;;;;33.17;23.40;;;9.80;91.70;;;;;;5076751;28;20175;-77
2021/03/25 08:16:30;;;;;;;33.07;23.37;;;9.90;92.80;;;;;;5095064;28;20217;-81
2021/03/25 08:19:02;;;;;;;33.80;23.40;;;9.80;94.10;;;;;;5076260;28;20226;-79
2021/03/25 08:21:38;;;;;;;34.63;22.33;;;9.90;95.40;;;;;;5074743;28;20164;-78
2021/03/25 08:24:39;;;;;;;35.63;23.13;;;10.10;94.90;;;;;;5074412;28;20533;-80
2021/03/25 08:27:27;;;;;;;31.87;23.13;;;10.00;95.30;;;;;;5041780;28;20743;-79
2021/03/25 08:30:02;;;;;;;30.83;20.57;;;10.00;96.10;;;;;;5085045;28;20219;-79
2021/03/25 08:32:46;;;;;;;31.53;21.57;;;10.00;97.10;;;;;;5094723;28;20201;-81
2021/03/25 08:35:39;;;;;;;27.33;20.50;;;10.00;98.50;;;;;;5082313;28;20573;-80
2021/03/25 08:38:28;;;;;;;28.20;20.93;;;10.00;99.50;;;;;;5056113;28;20195;-83
2021/03/25 08:41:01;;;;;;;37.57;21.47;;;10.10;99.70;;;;;;5074390;28;20222;-81
2021/03/25 08:43:37;;;;;;;28.77;21.13;;;10.10;99.30;;;;;;5079496;28;20686;-79
2021/03/25 08:46:08;;;;;;;27.73;19.33;;;10.10;99.70;;;;;;5073763;28;20341;-83
2021/03/25 08:48:40;;;;;;;27.83;20.63;;;10.10;99.50;;;;;;5073676;28;20533;-86
2021/03/25 08:51:21;;;;;;;31.27;20.10;;;10.20;99.40;;;;;;5055603;28;20176;-83
2021/03/25 08:54:07;;;;;;;25.63;18.53;;;10.30;99.40;;;;;;5055754;28;20496;-77
2021/03/25 08:57:00;;;;;;;30.13;17.30;;;10.30;99.30;;;;;;5073915;28;20543;-81
2021/03/25 08:59:37;;;;;;;24.27;18.67;;;10.40;98.80;;;;;;5086693;28;20651;-81
2021/03/25 09:02:06;;;;;;;24.93;17.73;;;10.60;98.20;;;;;;5063664;28;20173;-81
2021/03/25 09:04:36;;;;;;;28.70;18.60;;;10.60;97.00;;;;;;5066629;28;20175;-79
2021/03/25 09:07:04;;;;;;;26.77;18.27;;;10.60;96.70;;;;;;5073453;28;20168;-79
2021/03/25 09:09:58;;;;;;;25.87;18.00;;;10.70;97.10;;;;;;5088194;28;20200;-79
2021/03/25 09:12:32;;;;;;;23.50;17.77;;;10.80;95.50;;;;;;5093603;28;20168;-79
2021/03/25 09:15:07;;;;;;;27.23;18.43;;;10.80;95.40;;;;;;5075650;28;20175;-80
2021/03/25 09:17:53;;;;;;;28.10;18.00;;;11.00;95.10;;;;;;5084428;28;20171;-81
2021/03/25 09:20:45;;;;;;;22.57;16.40;;;11.00;94.40;;;;;;5083232;28;20171;-78
2021/03/25 09:23:30;;;;;;;20.77;15.03;;;11.00;94.80;;;;;;5092640;28;20681;-81
2021/03/25 09:26:20;;;;;;;16.53;12.53;;;11.10;94.80;;;;;;5074906;28;20264;-79
2021/03/25 09:28:58;;;;;;;17.90;12.90;;;10.90;93.90;;;;;;5034086;28;20195;-78
2021/03/25 09:31:39;;;;;;;15.33;11.90;;;11.00;93.70;;;;;;5082989;28;20194;-79
2021/03/25 09:34:17;;;;;;;18.13;12.83;;;11.00;93.60;;;;;;5073134;28;20255;-82
2021/03/25 09:36:54;;;;;;;14.33;12.53;;;11.00;94.30;;;;;;5073709;28;20176;-79
2021/03/25 09:39:25;;;;;;;16.07;11.73;;;11.00;94.50;;;;;;5065859;28;20187;-78
2021/03/25 09:41:51;;;;;;;15.20;12.40;;;11.00;93.80;;;;;;5093360;28;20234;-82
2021/03/25 09:44:38;;;;;;;16.37;11.40;;;10.80;94.60;;;;;;5075804;28;20211;-81
2021/03/25 09:47:27;;;;;;;14.67;11.60;;;10.90;94.50;;;;;;5073075;28;20243;-81
2021/03/25 09:50:02;;;;;;;18.57;12.07;;;11.00;93.70;;;;;;5072980;28;20227;-78
2021/03/25 09:52:35;;;;;;;19.23;12.70;;;11.00;93.50;;;;;;5072635;28;20199;-81
2021/03/25 09:55:01;;;;;;;14.50;11.23;;;11.00;94.30;;;;;;5073000;28;20176;-83
2021/03/25 09:57:30;;;;;;;17.17;12.37;;;10.90;94.60;;;;;;5072804;28;20534;-82
2021/03/25 10:00:07;;;;;;;15.77;11.70;;;11.00;94.80;;;;;;5073091;28;20199;-86
2021/03/25 10:02:47;;;;;;;16.40;12.13;;;11.10;94.20;;;;;;5092671;28;20266;-80
2021/03/25 10:05:25;;;;;;;16.90;12.37;;;11.30;93.40;;;;;;5074966;28;20565;-79
2021/03/25 10:07:58;;;;;;;17.93;13.30;;;11.30;91.70;;;;;;5089417;28;20176;-81
2021/03/25 10:10:33;;;;;;;15.60;11.87;;;11.30;90.70;;;;;;5072355;28;20208;-85
2021/03/25 10:13:05;;;;;;;17.37;12.57;;;11.50;89.20;;;;;;5072731;28;20258;-83
2021/03/25 10:15:32;;;;;;;17.60;12.57;;;11.30;89.70;;;;;;5073107;28;20199;-87
2021/03/25 10:18:10;;;;;;;14.23;12.63;;;11.30;90.20;;;;;;5072663;28;20164;-83
2021/03/25 10:20:57;;;;;;;16.97;13.13;;;11.50;85.10;;;;;;5082788;28;20226;-84
2021/03/25 10:23:32;;;;;;;15.97;12.53;;;11.50;82.80;;;;;;5054544;28;20208;-80
2021/03/25 10:26:10;;;;;;;17.83;11.77;;;11.50;84.10;;;;;;5072167;28;20707;-82
2021/03/25 10:28:46;;;;;;;16.07;12.23;;;11.40;77.60;;;;;;5072070;28;20711;-83
2021/03/25 10:31:40;;;;;;;16.10;12.50;;;11.50;76.50;;;;;;5080513;28;20208;-79
2021/03/25 10:34:37;;;;;;;23.37;13.87;;;11.60;78.90;;;;;;5092199;28;20172;-78
2021/03/25 10:37:10;;;;;;;17.70;13.17;;;11.80;77.50;;;;;;5092616;28;20175;-82
2021/03/25 10:39:39;;;;;;;17.47;13.37;;;11.90;65.80;;;;;;5092310;28;20635;-82
2021/03/25 10:42:29;;;;;;;15.87;12.90;;;11.90;59.10;;;;;;5074769;28;20194;-87
2021/03/25 10:44:57;;;;;;;18.93;13.90;;;12.00;58.50;;;;;;5072332;28;20190;-83
2021/03/25 10:47:30;;;;;;;14.47;12.57;;;12.00;55.10;;;;;;5054170;28;20176;-81
2021/03/25 10:49:59;;;;;;;16.20;13.83;;;11.90;57.30;;;;;;5071483;28;20204;-83
2021/03/25 10:52:36;;;;;;;16.17;12.97;;;11.70;56.00;;;;;;5071721;28;20243;-83
2021/03/25 10:55:24;;;;;;;19.83;14.83;;;11.70;57.20;;;;;;5071938;28;20371;-81
2021/03/25 10:57:52;;;;;;;15.47;12.73;;;11.80;55.90;;;;;;5083392;28;20210;-80
2021/03/25 11:00:22;;;;;;;15.07;12.40;;;11.70;49.80;;;;;;5073078;28;20298;-82
2021/03/25 11:02:48;;;;;;;15.87;13.03;;;11.70;50.20;;;;;;5091794;28;20160;-81
2021/03/25 11:05:24;;;;;;;15.43;12.97;;;11.80;49.60;;;;;;5091862;28;20232;-82
2021/03/25 11:07:52;;;;;;;17.20;13.63;;;11.70;44.00;;;;;;5070354;28;20164;-82
2021/03/25 11:10:25;;;;;;;15.93;12.07;;;11.70;43.40;;;;;;5071993;28;20207;-83
2021/03/25 11:12:58;;;;;;;14.50;11.23;;;11.90;41.80;;;;;;5071715;28;20198;-78
2021/03/25 11:15:32;;;;;;;13.07;11.53;;;12.10;29.90;;;;;;5071406;28;20252;-84
2021/03/25 11:18:02;;;;;;;14.17;11.50;;;12.30;21.40;;;;;;5071346;28;20157;-79
2021/03/25 11:20:28;;;;;;;14.63;10.83;;;12.60;16.40;;;;;;5071403;28;20179;-79
2021/03/25 11:22:57;;;;;;;12.87;11.33;;;12.70;1.00;;;;;;5070542;28;20195;-81
2021/03/25 11:25:31;;;;;;;13.93;11.53;;;12.80;1.00;;;;;;5070834;28;20238;-80
2021/03/25 11:28:05;;;;;;;16.23;10.53;;;12.90;1.00;;;;;;5070874;28;20655;-82
2021/03/25 11:30:40;;;;;;;16.27;11.07;;;12.90;1.00;;;;;;5071315;28;20263;-86
2021/03/25 11:33:27;;;;;;;13.17;10.63;;;12.90;1.00;;;;;;5077773;28;20497;-81
2021/03/25 11:35:56;;;;;;;13.40;10.77;;;12.90;1.00;;;;;;5078522;28;20643;-79
2021/03/25 11:38:24;;;;;;;14.20;10.73;;;12.90;1.00;;;;;;5077763;28;20283;-85
2021/03/25 11:40:52;;;;;;;13.23;11.37;;;12.90;1.00;;;;;;5060149;28;20216;-78
2021/03/25 11:43:21;;;;;;;14.73;11.57;;;12.80;1.00;;;;;;5086592;28;20199;-79
2021/03/25 11:45:54;;;;;;;14.80;11.40;;;12.60;1.00;;;;;;5078706;28;20175;-80
2021/03/25 11:48:32;;;;;;;12.97;11.50;;;12.60;1.00;;;;;;5096949;28;20195;-79
2021/03/25 11:51:17;;;;;;;17.37;11.53;;;12.70;1.00;;;;;;5098232;28;20206;-79
2021/03/25 11:53:54;;;;;;;14.67;10.63;;;12.70;1.00;;;;;;5097806;28;20186;-80
2021/03/25 11:56:38;;;;;;;15.30;11.17;;;12.90;1.00;;;;;;5097932;28;20175;-79
2021/03/25 11:59:24;;;;;;;14.00;10.57;;;13.00;1.00;;;;;;5097738;28;20171;-82
2021/03/25 12:02:20;;;;;;;13.60;9.93;;;13.00;1.00;;;;;;5066839;28;20262;-80
2021/03/25 12:04:47;;;;;;;13.77;10.60;;;12.90;1.00;;;;;;5083262;28;20266;-78
2021/03/25 12:07:12;;;;;;;12.77;10.37;;;12.90;1.00;;;;;;5083032;28;20180;-80
2021/03/25 12:09:57;;;;;;;14.30;10.67;;;12.90;1.00;;;;;;5095851;28;20730;-78
2021/03/25 12:12:24;;;;;;;12.33;10.03;;;12.90;1.00;;;;;;5097964;28;20521;-77
2021/03/25 12:14:50;;;;;;;12.63;9.97;;;12.80;1.00;;;;;;5097820;28;20171;-85
2021/03/25 12:17:15;;;;;;;12.63;9.87;;;12.90;1.00;;;;;;5097934;28;20247;-84
2021/03/25 12:19:41;;;;;;;17.00;9.67;;;12.90;1.00;;;;;;5097740;28;20168;-80
2021/03/25 12:22:10;;;;;;;14.80;9.30;;;13.00;1.00;;;;;;5098028;28;20308;-80
2021/03/25 12:24:36;;;;;;;10.93;9.07;;;12.90;1.00;;;;;;5098039;28;20178;-83
2021/03/25 12:27:02;;;;;;;14.77;8.87;;;13.00;1.00;;;;;;5097994;28;20191;-78
2021/03/25 12:29:28;;;;;;;18.90;9.03;;;12.90;1.00;;;;;;5079776;28;20317;-80
2021/03/25 12:31:53;;;;;;;15.93;9.20;;;12.90;1.00;;;;;;5082775;28;20174;-80
2021/03/25 12:34:21;;;;;;;12.30;10.17;;;12.90;1.00;;;;;;5077381;28;20520;-78
2021/03/25 12:36:46;;;;;;;13.67;10.30;;;13.00;1.00;;;;;;5076593;28;20640;-86
2021/03/25 12:39:13;;;;;;;13.83;9.70;;;13.20;1.00;;;;;;5059169;28;20216;-79
2021/03/25 12:41:43;;;;;;;12.40;10.17;;;13.40;1.00;;;;;;5077524;28;20248;-84
2021/03/25 12:44:12;;;;;;;15.17;10.63;;;13.70;1.00;;;;;;5073933;28;20192;-79
2021/03/25 12:46:38;;;;;;;12.23;10.67;;;13.60;1.00;;;;;;5073337;28;20225;-81
2021/03/25 12:49:04;;;;;;;13.70;10.40;;;13.70;1.00;;;;;;5073112;28;20203;-78
2021/03/25 12:51:30;;;;;;;17.13;10.93;;;13.60;1.00;;;;;;5055500;28;20176;-80
2021/03/25 12:53:55;;;;;;;17.80;10.47;;;13.60;1.00;;;;;;5073716;28;20164;-79
2021/03/25 12:56:28;;;;;;;12.60;9.83;;;13.50;1.00;;;;;;5073649;28;20176;-80
2021/03/25 12:58:55;;;;;;;12.57;9.20;;;13.50;1.00;;;;;;5074928;28;20227;-81
2021/03/25 13:01:23;;;;;;;13.27;10.27;;;13.40;1.00;;;;;;5083622;28;20172;-82
2021/03/25 13:03:49;;;;;;;15.47;10.63;;;13.50;1.00;;;;;;5093701;28;20163;-77
2021/03/25 13:06:16;;;;;;;11.90;10.03;;;13.30;1.00;;;;;;5093361;28;20171;-79
2021/03/25 13:08:42;;;;;;;17.93;10.83;;;13.30;1.00;;;;;;5082621;28;20632;-81
2021/03/25 13:11:10;;;;;;;13.07;9.73;;;13.30;1.00;;;;;;5072825;28;20171;-83
2021/03/25 13:13:36;;;;;;;13.93;10.73;;;13.30;1.00;;;;;;5073574;28;20268;-78
2021/03/25 13:16:03;;;;;;;12.00;9.80;;;13.30;1.00;;;;;;5073448;28;20811;-79